aviador You're here:

ZMUB Decoded Metar

ULAN BATOR in MONGOLIA
Report Time2017-03-24 00:00:00
UTC Time2017-03-24 00:08:22
Flight Rules vfr VFR
Wind360° at 12 kt
W.Decomp.*RWY 33: 10.1 kt HW 6.5 kt RCW
RWY 32: 8.8 kt HW 8.2 kt RCW
Visibility9999 m
Phenomena:N/A
Clouds:Few 033 Hf
Broken 100 Hf
Expected CloudBase > 2,800 ft AGL from Temp-Dew spread
Ceiling10,000 ft
Temp-5°C (ISA -11)
Dew Point-12°C (58% RH)
AAT-12.5°C
QNH1026 hPa
Density Alt2,585 ft
Elevation4,364 ft
Report Wrong Elevation
Raw Report
METAR ZMUB 240000Z 36006MPS 9999 FEW033 BKN100 M05/M12 Q1026 NOSIG
RMK QFE661.1 59 MOP=####018001472####
SAUS20 KNKA 232356

Extra information for ZMUB:More info

Metar Taf Metar & Taf Last 4 Metars F.Rules Stats Wind Profile Meteogram Temp Stats Airport Information Weather charts Add Link Nearby VenuesMetar ALERT Operation Metar Decoded Social comments